sensor_id;sensor_type;location;lat;lon;timestamp;P1;durP1;ratioP1;P2;durP2;ratioP2
16669;SDS011;8448;52.034;5.158;2024-02-21T00:01:56;11.90;;;4.47;;
16669;SDS011;8448;52.034;5.158;2024-02-21T00:04:23;11.70;;;4.63;;
16669;SDS011;8448;52.034;5.158;2024-02-21T00:06:51;12.67;;;4.57;;
16669;SDS011;8448;52.034;5.158;2024-02-21T00:09:19;13.30;;;4.57;;
16669;SDS011;8448;52.034;5.158;2024-02-21T00:11:47;10.60;;;4.50;;
16669;SDS011;8448;52.034;5.158;2024-02-21T00:14:14;10.90;;;3.90;;
16669;SDS011;8448;52.034;5.158;2024-02-21T00:16:42;11.50;;;4.53;;
16669;SDS011;8448;52.034;5.158;2024-02-21T00:19:09;10.80;;;4.77;;
16669;SDS011;8448;52.034;5.158;2024-02-21T00:21:36;11.27;;;4.37;;
16669;SDS011;8448;52.034;5.158;2024-02-21T00:24:04;11.97;;;4.80;;
16669;SDS011;8448;52.034;5.158;2024-02-21T00:26:33;10.70;;;4.70;;
16669;SDS011;8448;52.034;5.158;2024-02-21T00:29:00;11.97;;;4.80;;
16669;SDS011;8448;52.034;5.158;2024-02-21T00:31:28;11.00;;;4.40;;
16669;SDS011;8448;52.034;5.158;2024-02-21T00:33:55;12.97;;;4.87;;
16669;SDS011;8448;52.034;5.158;2024-02-21T00:36:22;16.47;;;5.27;;
16669;SDS011;8448;52.034;5.158;2024-02-21T00:38:50;13.23;;;4.77;;
16669;SDS011;8448;52.034;5.158;2024-02-21T00:41:17;15.50;;;4.87;;
16669;SDS011;8448;52.034;5.158;2024-02-21T00:43:46;11.27;;;4.53;;
16669;SDS011;8448;52.034;5.158;2024-02-21T00:46:15;9.63;;;5.03;;
16669;SDS011;8448;52.034;5.158;2024-02-21T00:48:42;9.40;;;4.07;;
16669;SDS011;8448;52.034;5.158;2024-02-21T00:51:09;15.53;;;5.07;;
16669;SDS011;8448;52.034;5.158;2024-02-21T00:53:37;12.20;;;4.33;;
16669;SDS011;8448;52.034;5.158;2024-02-21T00:56:04;15.43;;;4.57;;
16669;SDS011;8448;52.034;5.158;2024-02-21T00:58:32;10.87;;;4.67;;
16669;SDS011;8448;52.034;5.158;2024-02-21T01:01:01;11.40;;;4.37;;
16669;SDS011;8448;52.034;5.158;2024-02-21T01:03:28;13.27;;;4.50;;
16669;SDS011;8448;52.034;5.158;2024-02-21T01:05:56;11.90;;;4.37;;
16669;SDS011;8448;52.034;5.158;2024-02-21T01:08:23;12.73;;;4.80;;
16669;SDS011;8448;52.034;5.158;2024-02-21T01:10:50;11.80;;;4.50;;
16669;SDS011;8448;52.034;5.158;2024-02-21T01:13:18;12.23;;;4.47;;
16669;SDS011;8448;52.034;5.158;2024-02-21T01:15:45;14.27;;;4.83;;
16669;SDS011;8448;52.034;5.158;2024-02-21T01:18:14;13.50;;;5.10;;
16669;SDS011;8448;52.034;5.158;2024-02-21T01:20:41;14.20;;;4.33;;
16669;SDS011;8448;52.034;5.158;2024-02-21T01:23:09;15.47;;;4.87;;
16669;SDS011;8448;52.034;5.158;2024-02-21T01:25:36;13.50;;;4.90;;
16669;SDS011;8448;52.034;5.158;2024-02-21T01:28:03;14.07;;;4.90;;
16669;SDS011;8448;52.034;5.158;2024-02-21T01:30:31;10.33;;;4.77;;
16669;SDS011;8448;52.034;5.158;2024-02-21T01:32:58;12.67;;;4.70;;
16669;SDS011;8448;52.034;5.158;2024-02-21T01:35:27;11.67;;;4.50;;
16669;SDS011;8448;52.034;5.158;2024-02-21T01:37:55;12.57;;;4.80;;
16669;SDS011;8448;52.034;5.158;2024-02-21T01:40:22;12.40;;;5.30;;
16669;SDS011;8448;52.034;5.158;2024-02-21T01:42:49;12.97;;;4.80;;
16669;SDS011;8448;52.034;5.158;2024-02-21T01:45:18;16.37;;;5.47;;
16669;SDS011;8448;52.034;5.158;2024-02-21T01:47:46;14.33;;;5.13;;
16669;SDS011;8448;52.034;5.158;2024-02-21T01:50:13;13.37;;;4.63;;
16669;SDS011;8448;52.034;5.158;2024-02-21T01:52:43;17.60;;;5.30;;
16669;SDS011;8448;52.034;5.158;2024-02-21T01:55:11;15.67;;;5.37;;
16669;SDS011;8448;52.034;5.158;2024-02-21T01:57:40;12.13;;;5.07;;
16669;SDS011;8448;52.034;5.158;2024-02-21T02:00:12;13.47;;;5.33;;
16669;SDS011;8448;52.034;5.158;2024-02-21T02:02:40;15.67;;;5.27;;
16669;SDS011;8448;52.034;5.158;2024-02-21T02:05:10;14.33;;;5.97;;
16669;SDS011;8448;52.034;5.158;2024-02-21T02:07:37;11.37;;;6.47;;
16669;SDS011;8448;52.034;5.158;2024-02-21T02:10:07;18.10;;;6.47;;
16669;SDS011;8448;52.034;5.158;2024-02-21T02:12:35;15.40;;;5.53;;
16669;SDS011;8448;52.034;5.158;2024-02-21T02:15:03;17.43;;;6.13;;
16669;SDS011;8448;52.034;5.158;2024-02-21T02:17:30;13.27;;;5.33;;
16669;SDS011;8448;52.034;5.158;2024-02-21T02:19:58;15.47;;;6.13;;
16669;SDS011;8448;52.034;5.158;2024-02-21T02:22:28;13.77;;;5.77;;
16669;SDS011;8448;52.034;5.158;2024-02-21T02:24:58;14.90;;;5.80;;
16669;SDS011;8448;52.034;5.158;2024-02-21T02:27:25;14.07;;;6.03;;
16669;SDS011;8448;52.034;5.158;2024-02-21T02:29:53;17.03;;;5.50;;
16669;SDS011;8448;52.034;5.158;2024-02-21T02:32:20;14.30;;;5.17;;
16669;SDS011;8448;52.034;5.158;2024-02-21T02:34:47;13.80;;;5.30;;
16669;SDS011;8448;52.034;5.158;2024-02-21T02:37:15;14.80;;;5.20;;
16669;SDS011;8448;52.034;5.158;2024-02-21T02:39:42;10.03;;;4.60;;
16669;SDS011;8448;52.034;5.158;2024-02-21T02:42:11;15.17;;;5.53;;
16669;SDS011;8448;52.034;5.158;2024-02-21T02:44:38;15.80;;;4.93;;
16669;SDS011;8448;52.034;5.158;2024-02-21T02:47:06;19.93;;;5.90;;
16669;SDS011;8448;52.034;5.158;2024-02-21T02:49:33;15.60;;;5.13;;
16669;SDS011;8448;52.034;5.158;2024-02-21T02:52:00;15.87;;;5.13;;
16669;SDS011;8448;52.034;5.158;2024-02-21T02:54:28;9.90;;;5.37;;
16669;SDS011;8448;52.034;5.158;2024-02-21T02:56:55;15.73;;;6.10;;
16669;SDS011;8448;52.034;5.158;2024-02-21T02:59:24;9.77;;;5.37;;
16669;SDS011;8448;52.034;5.158;2024-02-21T03:01:51;17.33;;;6.00;;
16669;SDS011;8448;52.034;5.158;2024-02-21T03:04:18;15.07;;;5.00;;
16669;SDS011;8448;52.034;5.158;2024-02-21T03:06:46;13.13;;;5.27;;
16669;SDS011;8448;52.034;5.158;2024-02-21T03:09:13;15.60;;;5.73;;
16669;SDS011;8448;52.034;5.158;2024-02-21T03:11:40;14.20;;;5.47;;
16669;SDS011;8448;52.034;5.158;2024-02-21T03:14:09;14.23;;;5.63;;
16669;SDS011;8448;52.034;5.158;2024-02-21T03:16:38;12.90;;;5.97;;
16669;SDS011;8448;52.034;5.158;2024-02-21T03:19:05;12.80;;;5.30;;
16669;SDS011;8448;52.034;5.158;2024-02-21T03:21:33;10.20;;;5.07;;
16669;SDS011;8448;52.034;5.158;2024-02-21T03:24:00;10.83;;;5.23;;
16669;SDS011;8448;52.034;5.158;2024-02-21T03:26:27;13.33;;;5.57;;
16669;SDS011;8448;52.034;5.158;2024-02-21T03:28:55;13.60;;;5.77;;
16669;SDS011;8448;52.034;5.158;2024-02-21T03:31:22;12.87;;;5.50;;
16669;SDS011;8448;52.034;5.158;2024-02-21T03:33:51;10.97;;;5.37;;
16669;SDS011;8448;52.034;5.158;2024-02-21T03:36:18;13.10;;;5.90;;
16669;SDS011;8448;52.034;5.158;2024-02-21T03:38:45;12.00;;;5.47;;
16669;SDS011;8448;52.034;5.158;2024-02-21T03:41:13;13.43;;;6.10;;
16669;SDS011;8448;52.034;5.158;2024-02-21T03:43:40;12.90;;;5.40;;
16669;SDS011;8448;52.034;5.158;2024-02-21T03:46:08;11.73;;;5.20;;
16669;SDS011;8448;52.034;5.158;2024-02-21T03:48:35;14.87;;;5.70;;
16669;SDS011;8448;52.034;5.158;2024-02-21T03:51:04;15.17;;;5.80;;
16669;SDS011;8448;52.034;5.158;2024-02-21T03:53:32;10.97;;;5.40;;
16669;SDS011;8448;52.034;5.158;2024-02-21T03:56:00;11.00;;;5.70;;
16669;SDS011;8448;52.034;5.158;2024-02-21T03:58:29;13.90;;;5.77;;
16669;SDS011;8448;52.034;5.158;2024-02-21T04:00:56;13.60;;;6.03;;
16669;SDS011;8448;52.034;5.158;2024-02-21T04:03:26;9.13;;;5.30;;
16669;SDS011;8448;52.034;5.158;2024-02-21T04:05:53;12.73;;;5.47;;
16669;SDS011;8448;52.034;5.158;2024-02-21T04:08:22;11.43;;;6.13;;
16669;SDS011;8448;52.034;5.158;2024-02-21T04:10:50;11.37;;;5.77;;
16669;SDS011;8448;52.034;5.158;2024-02-21T04:13:17;10.60;;;5.63;;
16669;SDS011;8448;52.034;5.158;2024-02-21T04:15:44;11.33;;;6.17;;
16669;SDS011;8448;52.034;5.158;2024-02-21T04:18:12;12.90;;;5.97;;
16669;SDS011;8448;52.034;5.158;2024-02-21T04:20:40;11.50;;;5.70;;
16669;SDS011;8448;52.034;5.158;2024-02-21T04:23:07;11.00;;;5.97;;
16669;SDS011;8448;52.034;5.158;2024-02-21T04:25:36;13.47;;;6.97;;
16669;SDS011;8448;52.034;5.158;2024-02-21T04:28:03;10.30;;;5.73;;
16669;SDS011;8448;52.034;5.158;2024-02-21T04:30:31;12.77;;;6.07;;
16669;SDS011;8448;52.034;5.158;2024-02-21T04:32:59;14.40;;;6.63;;
16669;SDS011;8448;52.034;5.158;2024-02-21T04:35:26;12.07;;;6.63;;
16669;SDS011;8448;52.034;5.158;2024-02-21T04:37:53;11.03;;;6.70;;
16669;SDS011;8448;52.034;5.158;2024-02-21T04:40:21;12.87;;;7.10;;
16669;SDS011;8448;52.034;5.158;2024-02-21T04:42:49;13.73;;;7.13;;
16669;SDS011;8448;52.034;5.158;2024-02-21T04:45:17;11.27;;;6.90;;
16669;SDS011;8448;52.034;5.158;2024-02-21T04:47:44;13.73;;;6.80;;
16669;SDS011;8448;52.034;5.158;2024-02-21T04:50:12;11.27;;;7.33;;
16669;SDS011;8448;52.034;5.158;2024-02-21T04:52:39;12.00;;;7.40;;
16669;SDS011;8448;52.034;5.158;2024-02-21T04:55:06;13.03;;;8.20;;
16669;SDS011;8448;52.034;5.158;2024-02-21T04:57:34;14.70;;;8.33;;
16669;SDS011;8448;52.034;5.158;2024-02-21T05:00:03;14.23;;;7.97;;
16669;SDS011;8448;52.034;5.158;2024-02-21T05:02:31;14.57;;;8.20;;
16669;SDS011;8448;52.034;5.158;2024-02-21T05:04:59;14.40;;;8.10;;
16669;SDS011;8448;52.034;5.158;2024-02-21T05:07:27;15.53;;;8.07;;
16669;SDS011;8448;52.034;5.158;2024-02-21T05:09:54;14.67;;;7.70;;
16669;SDS011;8448;52.034;5.158;2024-02-21T05:12:21;14.27;;;7.40;;
16669;SDS011;8448;52.034;5.158;2024-02-21T05:14:49;13.73;;;7.13;;
16669;SDS011;8448;52.034;5.158;2024-02-21T05:17:17;13.53;;;7.70;;
16669;SDS011;8448;52.034;5.158;2024-02-21T05:19:45;13.40;;;7.40;;
16669;SDS011;8448;52.034;5.158;2024-02-21T05:22:12;13.10;;;6.80;;
16669;SDS011;8448;52.034;5.158;2024-02-21T05:24:40;15.50;;;7.40;;
16669;SDS011;8448;52.034;5.158;2024-02-21T05:27:07;13.93;;;6.93;;
16669;SDS011;8448;52.034;5.158;2024-02-21T05:29:34;12.80;;;7.40;;
16669;SDS011;8448;52.034;5.158;2024-02-21T05:32:02;14.40;;;7.60;;
16669;SDS011;8448;52.034;5.158;2024-02-21T05:34:31;14.43;;;7.30;;
16669;SDS011;8448;52.034;5.158;2024-02-21T05:36:58;14.90;;;7.47;;
16669;SDS011;8448;52.034;5.158;2024-02-21T05:39:26;13.20;;;7.13;;
16669;SDS011;8448;52.034;5.158;2024-02-21T05:41:54;17.63;;;7.50;;
16669;SDS011;8448;52.034;5.158;2024-02-21T05:44:21;12.90;;;8.10;;
16669;SDS011;8448;52.034;5.158;2024-02-21T05:46:49;14.23;;;8.00;;
16669;SDS011;8448;52.034;5.158;2024-02-21T05:49:16;15.93;;;8.00;;
16669;SDS011;8448;52.034;5.158;2024-02-21T05:51:45;21.87;;;8.87;;
16669;SDS011;8448;52.034;5.158;2024-02-21T05:54:12;15.50;;;8.57;;
16669;SDS011;8448;52.034;5.158;2024-02-21T05:56:43;16.87;;;9.07;;
16669;SDS011;8448;52.034;5.158;2024-02-21T05:59:11;18.13;;;9.40;;
16669;SDS011;8448;52.034;5.158;2024-02-21T06:01:38;18.63;;;9.60;;
16669;SDS011;8448;52.034;5.158;2024-02-21T06:04:06;16.13;;;9.80;;
16669;SDS011;8448;52.034;5.158;2024-02-21T06:06:33;20.00;;;10.20;;
16669;SDS011;8448;52.034;5.158;2024-02-21T06:09:02;20.33;;;10.00;;
16669;SDS011;8448;52.034;5.158;2024-02-21T06:11:29;19.00;;;10.23;;
16669;SDS011;8448;52.034;5.158;2024-02-21T06:13:56;18.90;;;10.37;;
16669;SDS011;8448;52.034;5.158;2024-02-21T06:16:25;23.20;;;10.93;;
16669;SDS011;8448;52.034;5.158;2024-02-21T06:18:52;18.93;;;10.77;;
16669;SDS011;8448;52.034;5.158;2024-02-21T06:21:19;21.27;;;10.83;;
16669;SDS011;8448;52.034;5.158;2024-02-21T06:23:47;17.00;;;9.90;;
16669;SDS011;8448;52.034;5.158;2024-02-21T06:26:15;18.07;;;10.57;;
16669;SDS011;8448;52.034;5.158;2024-02-21T06:28:43;22.47;;;11.20;;
16669;SDS011;8448;52.034;5.158;2024-02-21T06:31:11;22.30;;;11.13;;
16669;SDS011;8448;52.034;5.158;2024-02-21T06:33:40;19.40;;;10.50;;
16669;SDS011;8448;52.034;5.158;2024-02-21T06:36:07;22.27;;;11.77;;
16669;SDS011;8448;52.034;5.158;2024-02-21T06:38:35;21.10;;;11.30;;
16669;SDS011;8448;52.034;5.158;2024-02-21T06:41:02;21.37;;;11.73;;
16669;SDS011;8448;52.034;5.158;2024-02-21T06:43:31;22.90;;;11.50;;
16669;SDS011;8448;52.034;5.158;2024-02-21T06:45:58;23.00;;;11.00;;
16669;SDS011;8448;52.034;5.158;2024-02-21T06:48:25;20.90;;;11.50;;
16669;SDS011;8448;52.034;5.158;2024-02-21T06:50:53;25.53;;;12.60;;
16669;SDS011;8448;52.034;5.158;2024-02-21T06:53:20;23.97;;;11.53;;
16669;SDS011;8448;52.034;5.158;2024-02-21T06:55:47;23.08;;;13.15;;
16669;SDS011;8448;52.034;5.158;2024-02-21T06:58:15;22.93;;;12.70;;
16669;SDS011;8448;52.034;5.158;2024-02-21T07:00:43;24.40;;;12.73;;
16669;SDS011;8448;52.034;5.158;2024-02-21T07:03:11;23.40;;;11.43;;
16669;SDS011;8448;52.034;5.158;2024-02-21T07:05:38;22.40;;;11.47;;
16669;SDS011;8448;52.034;5.158;2024-02-21T07:08:06;21.43;;;12.20;;
16669;SDS011;8448;52.034;5.158;2024-02-21T07:10:33;24.07;;;11.77;;
16669;SDS011;8448;52.034;5.158;2024-02-21T07:13:00;21.83;;;12.00;;
16669;SDS011;8448;52.034;5.158;2024-02-21T07:15:28;27.53;;;11.83;;
16669;SDS011;8448;52.034;5.158;2024-02-21T07:17:57;24.40;;;11.50;;
16669;SDS011;8448;52.034;5.158;2024-02-21T07:20:24;20.53;;;11.40;;
16669;SDS011;8448;52.034;5.158;2024-02-21T07:22:52;22.10;;;11.33;;
16669;SDS011;8448;52.034;5.158;2024-02-21T07:25:19;27.53;;;12.70;;
16669;SDS011;8448;52.034;5.158;2024-02-21T07:27:46;24.20;;;12.00;;
16669;SDS011;8448;52.034;5.158;2024-02-21T07:30:14;21.23;;;11.20;;
16669;SDS011;8448;52.034;5.158;2024-02-21T07:32:41;21.10;;;11.83;;
16669;SDS011;8448;52.034;5.158;2024-02-21T07:35:10;22.73;;;11.30;;
16669;SDS011;8448;52.034;5.158;2024-02-21T07:37:37;26.70;;;11.63;;
16669;SDS011;8448;52.034;5.158;2024-02-21T07:40:05;22.67;;;11.30;;
16669;SDS011;8448;52.034;5.158;2024-02-21T07:42:38;25.97;;;12.03;;
16669;SDS011;8448;52.034;5.158;2024-02-21T07:45:05;20.03;;;11.77;;
16669;SDS011;8448;52.034;5.158;2024-02-21T07:47:33;22.73;;;11.23;;
16669;SDS011;8448;52.034;5.158;2024-02-21T07:50:00;23.03;;;11.20;;
16669;SDS011;8448;52.034;5.158;2024-02-21T07:52:29;21.77;;;11.17;;
16669;SDS011;8448;52.034;5.158;2024-02-21T07:54:57;23.77;;;10.90;;
16669;SDS011;8448;52.034;5.158;2024-02-21T07:57:24;21.97;;;10.97;;
16669;SDS011;8448;52.034;5.158;2024-02-21T07:59:51;23.40;;;10.90;;
16669;SDS011;8448;52.034;5.158;2024-02-21T08:02:19;14.70;;;10.17;;
16669;SDS011;8448;52.034;5.158;2024-02-21T08:04:46;20.47;;;10.87;;
16669;SDS011;8448;52.034;5.158;2024-02-21T08:07:13;20.40;;;11.10;;
16669;SDS011;8448;52.034;5.158;2024-02-21T08:09:42;24.77;;;12.23;;
16669;SDS011;8448;52.034;5.158;2024-02-21T08:12:09;23.60;;;11.87;;
16669;SDS011;8448;52.034;5.158;2024-02-21T08:14:37;21.07;;;12.00;;
16669;SDS011;8448;52.034;5.158;2024-02-21T08:17:04;20.70;;;11.63;;
16669;SDS011;8448;52.034;5.158;2024-02-21T08:19:31;23.97;;;11.83;;
16669;SDS011;8448;52.034;5.158;2024-02-21T08:21:59;23.93;;;12.10;;
16669;SDS011;8448;52.034;5.158;2024-02-21T08:24:26;22.03;;;12.53;;
16669;SDS011;8448;52.034;5.158;2024-02-21T08:26:55;27.37;;;13.67;;
16669;SDS011;8448;52.034;5.158;2024-02-21T08:29:23;24.57;;;12.97;;
16669;SDS011;8448;52.034;5.158;2024-02-21T08:31:55;23.17;;;13.00;;
16669;SDS011;8448;52.034;5.158;2024-02-21T08:34:22;25.80;;;13.13;;
16669;SDS011;8448;52.034;5.158;2024-02-21T08:36:49;25.00;;;13.37;;
16669;SDS011;8448;52.034;5.158;2024-02-21T08:39:17;24.77;;;12.17;;
16669;SDS011;8448;52.034;5.158;2024-02-21T08:41:44;24.37;;;13.03;;
16669;SDS011;8448;52.034;5.158;2024-02-21T08:44:13;23.67;;;13.43;;
16669;SDS011;8448;52.034;5.158;2024-02-21T08:46:40;22.30;;;12.17;;
16669;SDS011;8448;52.034;5.158;2024-02-21T08:49:09;21.87;;;11.93;;
16669;SDS011;8448;52.034;5.158;2024-02-21T08:51:37;22.20;;;11.53;;
16669;SDS011;8448;52.034;5.158;2024-02-21T08:54:04;22.13;;;11.43;;
16669;SDS011;8448;52.034;5.158;2024-02-21T08:56:31;23.80;;;11.87;;
16669;SDS011;8448;52.034;5.158;2024-02-21T08:59:00;21.53;;;11.57;;
16669;SDS011;8448;52.034;5.158;2024-02-21T09:01:30;22.43;;;11.03;;
16669;SDS011;8448;52.034;5.158;2024-02-21T09:03:59;19.53;;;10.20;;
16669;SDS011;8448;52.034;5.158;2024-02-21T09:06:27;17.47;;;10.30;;
16669;SDS011;8448;52.034;5.158;2024-02-21T09:08:56;15.77;;;9.87;;
16669;SDS011;8448;52.034;5.158;2024-02-21T09:11:23;17.27;;;9.60;;
16669;SDS011;8448;52.034;5.158;2024-02-21T09:13:52;21.73;;;9.87;;
16669;SDS011;8448;52.034;5.158;2024-02-21T09:16:20;20.10;;;9.73;;
16669;SDS011;8448;52.034;5.158;2024-02-21T09:18:49;18.00;;;9.37;;
16669;SDS011;8448;52.034;5.158;2024-02-21T09:21:17;17.03;;;9.80;;
16669;SDS011;8448;52.034;5.158;2024-02-21T09:23:45;21.03;;;10.20;;
16669;SDS011;8448;52.034;5.158;2024-02-21T09:26:12;20.47;;;10.20;;
16669;SDS011;8448;52.034;5.158;2024-02-21T09:28:42;16.93;;;9.50;;
16669;SDS011;8448;52.034;5.158;2024-02-21T09:31:09;16.23;;;9.53;;
16669;SDS011;8448;52.034;5.158;2024-02-21T09:33:36;16.17;;;9.20;;
16669;SDS011;8448;52.034;5.158;2024-02-21T09:36:06;16.97;;;9.40;;
16669;SDS011;8448;52.034;5.158;2024-02-21T09:38:33;16.70;;;9.03;;
16669;SDS011;8448;52.034;5.158;2024-02-21T09:41:03;15.50;;;8.87;;
16669;SDS011;8448;52.034;5.158;2024-02-21T09:43:34;14.77;;;8.57;;
16669;SDS011;8448;52.034;5.158;2024-02-21T09:46:02;15.67;;;8.57;;
16669;SDS011;8448;52.034;5.158;2024-02-21T09:48:31;16.50;;;8.53;;
16669;SDS011;8448;52.034;5.158;2024-02-21T09:51:07;13.60;;;8.17;;
16669;SDS011;8448;52.034;5.158;2024-02-21T09:53:37;14.60;;;8.33;;
16669;SDS011;8448;52.034;5.158;2024-02-21T09:56:05;14.70;;;8.33;;
16669;SDS011;8448;52.034;5.158;2024-02-21T09:58:34;14.23;;;8.10;;
16669;SDS011;8448;52.034;5.158;2024-02-21T10:01:02;16.20;;;8.10;;
16669;SDS011;8448;52.034;5.158;2024-02-21T10:03:31;14.30;;;8.07;;
16669;SDS011;8448;52.034;5.158;2024-02-21T10:05:59;12.87;;;7.97;;
16669;SDS011;8448;52.034;5.158;2024-02-21T10:08:28;11.67;;;7.10;;
16669;SDS011;8448;52.034;5.158;2024-02-21T10:10:56;13.20;;;6.93;;
16669;SDS011;8448;52.034;5.158;2024-02-21T10:13:26;11.77;;;7.33;;
16669;SDS011;8448;52.034;5.158;2024-02-21T10:16:01;10.73;;;7.00;;
16669;SDS011;8448;52.034;5.158;2024-02-21T10:18:29;13.10;;;7.23;;
16669;SDS011;8448;52.034;5.158;2024-02-21T10:21:00;11.97;;;6.73;;
16669;SDS011;8448;52.034;5.158;2024-02-21T10:26:14;12.23;;;6.87;;
16669;SDS011;8448;52.034;5.158;2024-02-21T10:28:43;13.57;;;6.67;;
16669;SDS011;8448;52.034;5.158;2024-02-21T10:31:21;9.57;;;6.30;;
16669;SDS011;8448;52.034;5.158;2024-02-21T10:33:53;8.97;;;6.20;;
16669;SDS011;8448;52.034;5.158;2024-02-21T10:36:22;8.87;;;6.50;;
16669;SDS011;8448;52.034;5.158;2024-02-21T10:38:52;9.83;;;6.53;;
16669;SDS011;8448;52.034;5.158;2024-02-21T10:41:20;8.87;;;5.83;;
16669;SDS011;8448;52.034;5.158;2024-02-21T10:43:49;8.03;;;5.83;;
16669;SDS011;8448;52.034;5.158;2024-02-21T10:46:18;13.23;;;6.20;;
16669;SDS011;8448;52.034;5.158;2024-02-21T10:48:47;10.40;;;6.20;;
16669;SDS011;8448;52.034;5.158;2024-02-21T10:51:22;7.60;;;5.80;;
16669;SDS011;8448;52.034;5.158;2024-02-21T10:53:57;8.40;;;5.63;;
16669;SDS011;8448;52.034;5.158;2024-02-21T10:56:30;8.70;;;5.93;;
16669;SDS011;8448;52.034;5.158;2024-02-21T10:59:00;10.67;;;5.90;;
16669;SDS011;8448;52.034;5.158;2024-02-21T11:01:29;10.23;;;6.53;;
16669;SDS011;8448;52.034;5.158;2024-02-21T11:03:58;10.00;;;7.10;;
16669;SDS011;8448;52.034;5.158;2024-02-21T11:06:26;13.97;;;7.60;;
16669;SDS011;8448;52.034;5.158;2024-02-21T11:09:02;11.27;;;7.93;;
16669;SDS011;8448;52.034;5.158;2024-02-21T11:11:30;14.33;;;9.00;;
16669;SDS011;8448;52.034;5.158;2024-02-21T11:14:06;13.77;;;9.63;;
16669;SDS011;8448;52.034;5.158;2024-02-21T11:16:37;12.10;;;9.27;;
16669;SDS011;8448;52.034;5.158;2024-02-21T11:19:05;13.83;;;9.33;;
16669;SDS011;8448;52.034;5.158;2024-02-21T11:21:34;14.23;;;9.63;;
16669;SDS011;8448;52.034;5.158;2024-02-21T11:24:03;14.07;;;10.23;;
16669;SDS011;8448;52.034;5.158;2024-02-21T11:26:31;15.87;;;10.07;;
16669;SDS011;8448;52.034;5.158;2024-02-21T11:28:59;13.77;;;9.57;;
16669;SDS011;8448;52.034;5.158;2024-02-21T11:31:38;13.93;;;9.83;;
16669;SDS011;8448;52.034;5.158;2024-02-21T11:34:08;12.73;;;9.57;;
16669;SDS011;8448;52.034;5.158;2024-02-21T11:36:36;13.10;;;8.50;;
16669;SDS011;8448;52.034;5.158;2024-02-21T11:39:19;13.63;;;9.30;;
16669;SDS011;8448;52.034;5.158;2024-02-21T11:41:47;15.83;;;9.00;;
16669;SDS011;8448;52.034;5.158;2024-02-21T11:44:26;18.43;;;9.00;;
16669;SDS011;8448;52.034;5.158;2024-02-21T11:46:53;13.00;;;7.93;;
16669;SDS011;8448;52.034;5.158;2024-02-21T11:49:21;11.50;;;8.27;;
16669;SDS011;8448;52.034;5.158;2024-02-21T11:51:57;12.30;;;8.33;;
16669;SDS011;8448;52.034;5.158;2024-02-21T11:54:27;13.97;;;7.87;;
16669;SDS011;8448;52.034;5.158;2024-02-21T11:56:54;13.00;;;7.70;;
16669;SDS011;8448;52.034;5.158;2024-02-21T11:59:22;13.77;;;7.30;;
16669;SDS011;8448;52.034;5.158;2024-02-21T12:01:49;11.87;;;7.80;;
16669;SDS011;8448;52.034;5.158;2024-02-21T12:04:17;11.30;;;7.00;;
16669;SDS011;8448;52.034;5.158;2024-02-21T12:06:45;12.63;;;7.07;;
16669;SDS011;8448;52.034;5.158;2024-02-21T12:09:13;10.20;;;7.00;;
16669;SDS011;8448;52.034;5.158;2024-02-21T12:11:43;11.83;;;7.53;;
16669;SDS011;8448;52.034;5.158;2024-02-21T12:14:10;11.03;;;7.10;;
16669;SDS011;8448;52.034;5.158;2024-02-21T12:16:42;15.20;;;7.47;;
16669;SDS011;8448;52.034;5.158;2024-02-21T12:19:12;10.97;;;6.77;;
16669;SDS011;8448;52.034;5.158;2024-02-21T12:21:42;13.27;;;7.13;;
16669;SDS011;8448;52.034;5.158;2024-02-21T12:24:13;10.63;;;6.83;;
16669;SDS011;8448;52.034;5.158;2024-02-21T12:26:41;10.77;;;7.23;;
16669;SDS011;8448;52.034;5.158;2024-02-21T12:29:09;12.33;;;6.80;;
16669;SDS011;8448;52.034;5.158;2024-02-21T12:31:37;13.03;;;6.77;;
16669;SDS011;8448;52.034;5.158;2024-02-21T12:34:04;9.40;;;6.50;;
16669;SDS011;8448;52.034;5.158;2024-02-21T12:36:35;10.00;;;6.20;;
16669;SDS011;8448;52.034;5.158;2024-02-21T12:39:06;11.90;;;6.23;;
16669;SDS011;8448;52.034;5.158;2024-02-21T12:41:34;10.70;;;6.57;;
16669;SDS011;8448;52.034;5.158;2024-02-21T12:44:04;10.37;;;6.27;;
16669;SDS011;8448;52.034;5.158;2024-02-21T12:46:32;8.77;;;5.97;;
16669;SDS011;8448;52.034;5.158;2024-02-21T12:49:00;6.97;;;5.50;;
16669;SDS011;8448;52.034;5.158;2024-02-21T12:51:28;9.37;;;5.77;;
16669;SDS011;8448;52.034;5.158;2024-02-21T12:53:55;10.03;;;6.20;;
16669;SDS011;8448;52.034;5.158;2024-02-21T12:56:22;8.37;;;5.60;;
16669;SDS011;8448;52.034;5.158;2024-02-21T12:58:51;10.43;;;6.20;;
16669;SDS011;8448;52.034;5.158;2024-02-21T13:01:20;8.13;;;5.60;;
16669;SDS011;8448;52.034;5.158;2024-02-21T13:03:48;10.67;;;6.00;;
16669;SDS011;8448;52.034;5.158;2024-02-21T13:06:15;9.80;;;5.90;;
16669;SDS011;8448;52.034;5.158;2024-02-21T13:08:44;11.23;;;6.30;;
16669;SDS011;8448;52.034;5.158;2024-02-21T13:11:12;9.10;;;5.23;;
16669;SDS011;8448;52.034;5.158;2024-02-21T13:13:39;8.63;;;5.43;;
16669;SDS011;8448;52.034;5.158;2024-02-21T13:16:06;7.57;;;5.30;;
16669;SDS011;8448;52.034;5.158;2024-02-21T13:18:36;7.77;;;5.17;;
16669;SDS011;8448;52.034;5.158;2024-02-21T13:21:04;8.50;;;5.40;;
16669;SDS011;8448;52.034;5.158;2024-02-21T13:23:32;8.20;;;5.17;;
16669;SDS011;8448;52.034;5.158;2024-02-21T13:26:00;13.00;;;5.00;;
16669;SDS011;8448;52.034;5.158;2024-02-21T13:28:27;9.57;;;5.23;;
16669;SDS011;8448;52.034;5.158;2024-02-21T13:30:54;10.27;;;5.20;;
16669;SDS011;8448;52.034;5.158;2024-02-21T13:33:22;9.63;;;5.10;;
16669;SDS011;8448;52.034;5.158;2024-02-21T13:35:51;9.40;;;5.53;;
16669;SDS011;8448;52.034;5.158;2024-02-21T13:38:18;9.37;;;5.00;;
16669;SDS011;8448;52.034;5.158;2024-02-21T13:40:45;9.57;;;5.00;;
16669;SDS011;8448;52.034;5.158;2024-02-21T13:43:13;7.80;;;5.13;;
16669;SDS011;8448;52.034;5.158;2024-02-21T13:45:42;13.67;;;5.13;;
16669;SDS011;8448;52.034;5.158;2024-02-21T13:48:23;13.07;;;5.23;;
16669;SDS011;8448;52.034;5.158;2024-02-21T13:50:53;10.50;;;5.00;;
16669;SDS011;8448;52.034;5.158;2024-02-21T13:53:20;12.50;;;5.57;;
16669;SDS011;8448;52.034;5.158;2024-02-21T13:55:48;9.73;;;5.00;;
16669;SDS011;8448;52.034;5.158;2024-02-21T13:58:16;10.20;;;5.00;;
16669;SDS011;8448;52.034;5.158;2024-02-21T14:00:44;8.23;;;4.60;;
16669;SDS011;8448;52.034;5.158;2024-02-21T14:03:12;9.27;;;4.90;;
16669;SDS011;8448;52.034;5.158;2024-02-21T14:05:39;10.17;;;4.93;;
16669;SDS011;8448;52.034;5.158;2024-02-21T14:08:08;9.70;;;4.77;;
16669;SDS011;8448;52.034;5.158;2024-02-21T14:10:35;9.33;;;5.20;;
16669;SDS011;8448;52.034;5.158;2024-02-21T14:13:03;12.43;;;5.23;;
16669;SDS011;8448;52.034;5.158;2024-02-21T14:15:30;8.80;;;5.17;;
16669;SDS011;8448;52.034;5.158;2024-02-21T14:17:57;8.73;;;4.93;;
16669;SDS011;8448;52.034;5.158;2024-02-21T14:20:25;7.33;;;5.17;;
16669;SDS011;8448;52.034;5.158;2024-02-21T14:22:52;8.10;;;4.97;;
16669;SDS011;8448;52.034;5.158;2024-02-21T14:25:21;9.50;;;4.60;;
16669;SDS011;8448;52.034;5.158;2024-02-21T14:27:48;9.03;;;4.50;;
16669;SDS011;8448;52.034;5.158;2024-02-21T14:30:16;8.43;;;5.00;;
16669;SDS011;8448;52.034;5.158;2024-02-21T14:32:43;9.03;;;4.70;;
16669;SDS011;8448;52.034;5.158;2024-02-21T14:35:11;10.23;;;4.77;;
16669;SDS011;8448;52.034;5.158;2024-02-21T14:37:40;9.97;;;5.00;;
16669;SDS011;8448;52.034;5.158;2024-02-21T14:40:08;8.67;;;4.83;;
16669;SDS011;8448;52.034;5.158;2024-02-21T14:42:37;8.77;;;4.27;;
16669;SDS011;8448;52.034;5.158;2024-02-21T14:45:05;9.07;;;4.43;;
16669;SDS011;8448;52.034;5.158;2024-02-21T14:47:33;7.50;;;4.70;;
16669;SDS011;8448;52.034;5.158;2024-02-21T14:50:02;9.97;;;4.80;;
16669;SDS011;8448;52.034;5.158;2024-02-21T14:52:30;10.33;;;4.70;;
16669;SDS011;8448;52.034;5.158;2024-02-21T14:54:58;8.43;;;4.67;;
16669;SDS011;8448;52.034;5.158;2024-02-21T14:57:27;9.20;;;5.17;;